MSC Giannina — CQYM — position and weather

sailwx.info

Track history (hours):
 
Tides and Currents Weather Stations Pressure Air Temp Water Temp Dewpoint Dewpoint Depression Visibility Wind Speed Wind Dir Waves Ship Positions

MSC Giannina

Last reported at 2018-Jan-20 11:52 UTC. Time now 2018-Jan-22 04:27 UTC.
Position N 38°27' E 015°54'.

Length 182 m; draft 11.3 m.

Type: Ship (hazmat cat A). MMSI: 255805892.

Date/timePositionNaut miles runAvg speedWind from/ knotsBaromVisibWave heightAir tempDewpointWater temp
2018-Jan-20 11:52N 38°27' E 015°54'0 0.0
2018-Jan-20 08:25N 38°27' E 015°54'1 1.8
2018-Jan-20 08:00N 38°27' E 015°53'6 3.9
2018-Jan-20 06:30N 38°22' E 015°48'912.5
2018-Jan-20 05:45N 38°15' E 015°40'415.3
2018-Jan-20 05:30N 38°13' E 015°37'510.0
2018-Jan-20 05:00N 38°08' E 015°36'3 5.8
2018-Jan-20 04:28N 38°05' E 015°36'511.6
2018-Jan-20 04:00N 37°59' E 015°35'913.1
2018-Jan-20 03:20N 37°52' E 015°41'514.1
2018-Jan-20 03:00N 37°51' E 015°47'714.1
2018-Jan-20 02:30N 37°49' E 015°55'713.9
2018-Jan-20 01:58N 37°47' E 016°04'35312.5
2018-Jan-18 21:49N 36°56' E 023°23'713.7
2018-Jan-18 21:19N 37°02' E 023°27'413.3
2018-Jan-18 21:00N 37°06' E 023°29'1513.3
2018-Jan-18 19:53N 37°20' E 023°36'512.9
2018-Jan-18 19:30N 37°24' E 023°38'612.4
2018-Jan-18 19:00N 37°30' E 023°40'611.9
2018-Jan-18 18:30N 37°36' E 023°42'611.2
2018-Jan-18 18:00N 37°42' E 023°41'611.5
2018-Jan-18 17:30N 37°47' E 023°38'511.0
2018-Jan-18 17:00N 37°52' E 023°36'5 9.7
2018-Jan-18 16:30N 37°57' E 023°36'1 1.0
2018-Jan-18 15:59N 37°57' E 023°36'0 0.0
2018-Jan-18 15:25N 37°57' E 023°36'0 0.0
2018-Jan-18 14:58N 37°57' E 023°36'0 0.0
2018-Jan-18 14:28N 37°57' E 023°36'0 0.0
2018-Jan-18 13:58N 37°57' E 023°36'0 0.0
2018-Jan-18 13:28N 37°57' E 023°36'0 0.0
2018-Jan-18 12:55N 37°57' E 023°36'0 0.1
2018-Jan-18 12:28N 37°57' E 023°36'0 0.0
2018-Jan-18 11:58N 37°57' E 023°36'0 0.0
2018-Jan-18 11:28N 37°57' E 023°36'0 0.0
2018-Jan-18 10:58N 37°57' E 023°36'0 0.0
2018-Jan-18 10:28N 37°57' E 023°36'0 0.0
2018-Jan-18 09:58N 37°57' E 023°36'0 0.0
2018-Jan-18 09:25N 37°57' E 023°36'0 0.0
2018-Jan-18 08:58N 37°57' E 023°36'0 0.0
2018-Jan-18 08:28N 37°57' E 023°36'0 0.0
2018-Jan-18 07:55N 37°57' E 023°36'0 0.0
2018-Jan-18 07:28N 37°57' E 023°36'0 0.0
2018-Jan-18 06:58N 37°57' E 023°36'0 0.0
2018-Jan-18 06:28N 37°57' E 023°36'0 0.0
2018-Jan-18 05:58N 37°57' E 023°36'0 0.0
2018-Jan-18 05:28N 37°57' E 023°36'0 0.0
2018-Jan-18 04:58N 37°57' E 023°36'0 0.0
2018-Jan-18 04:28N 37°57' E 023°36'0 0.0
2018-Jan-18 03:58N 37°57' E 023°36'0 0.0
2018-Jan-18 03:28N 37°57' E 023°36'0 0.0
2018-Jan-18 02:58N 37°57' E 023°36'0 0.0
2018-Jan-18 02:28N 37°57' E 023°36'0 0.0
2018-Jan-18 01:58N 37°57' E 023°36'0 0.0
2018-Jan-18 01:28N 37°57' E 023°36'0 0.0
2018-Jan-18 00:58N 37°57' E 023°36'0 0.0
2018-Jan-17 23:58N 37°57' E 023°36'0 0.1
2018-Jan-17 23:55N 37°57' E 023°36'  
Track history (hours):
 
Tides and Currents Weather Stations Pressure Air Temp Water Temp Dewpoint Dewpoint Depression Visibility Wind Speed Wind Dir Waves Ship Positions

MSC Giannina

Last reported at 2018-Jan-20 11:52 UTC. Time now 2018-Jan-22 04:27 UTC.
Position N 38°27' E 015°54'.

Length 182 m; draft 11.3 m.

Type: Ship (hazmat cat A). MMSI: 255805892.

Date/timePositionNaut miles runAvg speedWind from/ knotsBaromVisibWave heightAir tempDewpointWater temp
2018-Jan-20 11:52N 38°27' E 015°54'0 0.0
2018-Jan-20 08:25N 38°27' E 015°54'1 1.8
2018-Jan-20 08:00N 38°27' E 015°53'6 3.9
2018-Jan-20 06:30N 38°22' E 015°48'912.5
2018-Jan-20 05:45N 38°15' E 015°40'415.3
2018-Jan-20 05:30N 38°13' E 015°37'510.0
2018-Jan-20 05:00N 38°08' E 015°36'3 5.8
2018-Jan-20 04:28N 38°05' E 015°36'511.6
2018-Jan-20 04:00N 37°59' E 015°35'913.1
2018-Jan-20 03:20N 37°52' E 015°41'514.1
2018-Jan-20 03:00N 37°51' E 015°47'714.1
2018-Jan-20 02:30N 37°49' E 015°55'713.9
2018-Jan-20 01:58N 37°47' E 016°04'35312.5
2018-Jan-18 21:49N 36°56' E 023°23'713.7
2018-Jan-18 21:19N 37°02' E 023°27'413.3
2018-Jan-18 21:00N 37°06' E 023°29'1513.3
2018-Jan-18 19:53N 37°20' E 023°36'512.9
2018-Jan-18 19:30N 37°24' E 023°38'612.4
2018-Jan-18 19:00N 37°30' E 023°40'611.9
2018-Jan-18 18:30N 37°36' E 023°42'611.2
2018-Jan-18 18:00N 37°42' E 023°41'611.5
2018-Jan-18 17:30N 37°47' E 023°38'511.0
2018-Jan-18 17:00N 37°52' E 023°36'5 9.7
2018-Jan-18 16:30N 37°57' E 023°36'1 1.0
2018-Jan-18 15:59N 37°57' E 023°36'0 0.0
2018-Jan-18 15:25N 37°57' E 023°36'0 0.0
2018-Jan-18 14:58N 37°57' E 023°36'0 0.0
2018-Jan-18 14:28N 37°57' E 023°36'0 0.0
2018-Jan-18 13:58N 37°57' E 023°36'0 0.0
2018-Jan-18 13:28N 37°57' E 023°36'0 0.0
2018-Jan-18 12:55N 37°57' E 023°36'0 0.1
2018-Jan-18 12:28N 37°57' E 023°36'0 0.0
2018-Jan-18 11:58N 37°57' E 023°36'0 0.0
2018-Jan-18 11:28N 37°57' E 023°36'0 0.0
2018-Jan-18 10:58N 37°57' E 023°36'0 0.0
2018-Jan-18 10:28N 37°57' E 023°36'0 0.0
2018-Jan-18 09:58N 37°57' E 023°36'0 0.0
2018-Jan-18 09:25N 37°57' E 023°36'0 0.0
2018-Jan-18 08:58N 37°57' E 023°36'0 0.0
2018-Jan-18 08:28N 37°57' E 023°36'0 0.0
2018-Jan-18 07:55N 37°57' E 023°36'0 0.0
2018-Jan-18 07:28N 37°57' E 023°36'0 0.0
2018-Jan-18 06:58N 37°57' E 023°36'0 0.0
2018-Jan-18 06:28N 37°57' E 023°36'0 0.0
2018-Jan-18 05:58N 37°57' E 023°36'0 0.0
2018-Jan-18 05:28N 37°57' E 023°36'0 0.0
2018-Jan-18 04:58N 37°57' E 023°36'0 0.0
2018-Jan-18 04:28N 37°57' E 023°36'0 0.0
2018-Jan-18 03:58N 37°57' E 023°36'0 0.0
2018-Jan-18 03:28N 37°57' E 023°36'0 0.0
2018-Jan-18 02:58N 37°57' E 023°36'0 0.0
2018-Jan-18 02:28N 37°57' E 023°36'0 0.0
2018-Jan-18 01:58N 37°57' E 023°36'0 0.0
2018-Jan-18 01:28N 37°57' E 023°36'0 0.0
2018-Jan-18 00:58N 37°57' E 023°36'0 0.0
2018-Jan-17 23:58N 37°57' E 023°36'0 0.1
2018-Jan-17 23:55N 37°57' E 023°36'  

Dump ship's entire track history